This is the latest recevied weather packets stored in our database for station/object IU2RPR-3. If no packets are shown the sender has not sent any weather packets the latest 10 day(s).
| Time | Temp. | Humidity | Pressure | Rain* | Wind** | Luminosity | Snow |
|---|---|---|---|---|---|---|---|
| 1777502952 | 15° C | 87% | 1023.4 hPa | - | - | - | - |
| 1777501151 | 15.56° C | 88% | 1022.6 hPa | - | - | - | - |
| 1777499350 | 16.67° C | 79% | 1021.9 hPa | - | - | - | - |
| 1777497549 | 17.22° C | 66% | 1021.6 hPa | - | - | - | - |
| 1777495747 | 17.22° C | 61% | 1020.9 hPa | - | - | - | - |
| 1777493946 | 17.78° C | 60% | 1020.8 hPa | - | - | - | - |
| 1777492145 | 17.78° C | 63% | 1020.4 hPa | - | - | - | - |
| 1777490343 | 18.33° C | 68% | 1020.1 hPa | - | - | - | - |
| 1777488718 | 18.33° C | 65% | 1019.5 hPa | - | - | - | - |
| 1777486917 | 18.89° C | 63% | 1019.1 hPa | - | - | - | - |
| 1777485116 | 18.89° C | 60% | 1018.7 hPa | - | - | - | - |
| 1777483314 | 22.22° C | 58% | 1018 hPa | - | - | - | - |
| 1777481513 | 20.56° C | 66% | 1018.3 hPa | - | - | - | - |
| 1777479711 | 21.67° C | 63% | 1018.3 hPa | - | - | - | - |
| 1777477910 | 20° C | 69% | 1018.7 hPa | - | - | - | - |
| 1777476109 | 20° C | 69% | 1018.6 hPa | - | - | - | - |
| 1777474308 | 20.56° C | 62% | 1018.5 hPa | - | - | - | - |
| 1777472506 | 21.67° C | 61% | 1018.4 hPa | - | - | - | - |
| 1777470705 | 22.78° C | 56% | 1018.4 hPa | - | - | - | - |
| 1777468904 | 23.33° C | 53% | 1018.4 hPa | - | - | - | - |
| 1777467103 | 23.33° C | 48% | 1018.4 hPa | - | - | - | - |
| 1777465302 | 22.78° C | 49% | 1018.5 hPa | - | - | - | - |
| 1777463500 | 26.11° C | 44% | 1018.3 hPa | - | - | - | - |
| 1777461699 | 24.44° C | 49% | 1018.7 hPa | - | - | - | - |
| 1777459898 | 22.78° C | 53% | 1019 hPa | - | - | - | - |
* Rain since midnight (hover to see other rain measurements)
** Current wind speed in m/s (hover to see current wind gust speed)